createdAt,value
2018-05-01T00:01:05.571Z,6.50
2018-05-01T00:03:31.715Z,6.83
2018-05-01T00:05:57.807Z,7.17
2018-05-01T00:08:23.941Z,7.00
2018-05-01T00:10:50.010Z,6.37
2018-05-01T00:13:16.823Z,7.47
2018-05-01T00:15:42.930Z,6.60
2018-05-01T00:18:09.008Z,6.80
2018-05-01T00:20:35.093Z,6.53
2018-05-01T00:23:01.196Z,7.53
2018-05-01T00:25:27.322Z,6.43
2018-05-01T00:27:53.431Z,6.40
2018-05-01T00:30:19.526Z,6.90
2018-05-01T00:32:46.376Z,6.03
2018-05-01T00:35:13.238Z,5.93
2018-05-01T00:37:40.087Z,5.40
2018-05-01T00:40:07.007Z,5.00
2018-05-01T00:42:33.107Z,5.10
2018-05-01T00:44:59.213Z,4.60
2018-05-01T00:47:26.108Z,4.77
2018-05-01T00:49:52.143Z,4.40
2018-05-01T00:52:30.603Z,4.53
2018-05-01T00:54:56.695Z,3.83
2018-05-01T00:57:22.882Z,4.00
2018-05-01T00:59:49.055Z,4.23
2018-05-01T01:02:15.903Z,5.70
2018-05-01T01:04:42.739Z,4.20
2018-05-01T01:07:08.934Z,4.40
2018-05-01T01:09:35.105Z,3.90
2018-05-01T01:12:01.239Z,4.93
2018-05-01T01:14:27.355Z,3.97
2018-05-01T01:16:55.048Z,3.70
2018-05-01T01:19:21.134Z,4.10
2018-05-01T01:21:49.148Z,3.47
2018-05-01T01:24:15.231Z,2.80
2018-05-01T01:26:41.410Z,3.27
2018-05-01T01:29:07.530Z,3.13
2018-05-01T01:31:34.360Z,3.37
2018-05-01T01:34:00.563Z,2.93
2018-05-01T01:36:26.539Z,3.07
2018-05-01T01:38:52.498Z,3.13
2018-05-01T01:41:19.195Z,3.97
2018-05-01T01:43:45.190Z,4.17
2018-05-01T01:46:11.214Z,4.27
2018-05-01T01:48:37.927Z,4.70
2018-05-01T01:51:03.891Z,4.50
2018-05-01T01:53:29.871Z,4.20
2018-05-01T01:55:55.834Z,3.57
2018-05-01T01:58:21.807Z,3.60
2018-05-01T02:00:48.555Z,4.33
2018-05-01T02:03:15.242Z,3.73
2018-05-01T02:05:41.226Z,4.60
2018-05-01T02:08:07.171Z,3.70
2018-05-01T02:10:34.040Z,3.17
2018-05-01T02:13:00.031Z,3.40
2018-05-01T02:15:25.995Z,3.50
2018-05-01T02:17:52.674Z,3.40
2018-05-01T02:20:18.630Z,3.30
2018-05-01T02:22:44.581Z,4.13
2018-05-01T02:25:10.531Z,4.60
2018-05-01T02:27:36.560Z,4.20
2018-05-01T02:30:02.524Z,3.63
2018-05-01T02:32:29.211Z,3.47
2018-05-01T02:34:55.170Z,4.07
2018-05-01T02:37:21.128Z,3.40
2018-05-01T02:39:47.075Z,4.20
2018-05-01T02:42:13.788Z,3.87
2018-05-01T02:44:39.747Z,4.00
2018-05-01T02:47:05.703Z,3.80
2018-05-01T02:49:32.436Z,3.77
2018-05-01T02:51:58.416Z,3.93
2018-05-01T02:54:24.375Z,3.93
2018-05-01T02:56:50.488Z,4.73
2018-05-01T02:59:16.388Z,3.80
2018-05-01T03:01:43.102Z,3.63
2018-05-01T03:04:09.086Z,3.27
2018-05-01T03:06:35.790Z,3.30
2018-05-01T03:09:01.763Z,3.47
2018-05-01T03:11:28.494Z,3.80
2018-05-01T03:13:54.487Z,3.30
2018-05-01T03:16:20.459Z,3.10
2018-05-01T03:18:46.419Z,3.03
2018-05-01T03:21:13.170Z,2.80
2018-05-01T03:23:39.906Z,3.20
2018-05-01T03:26:05.845Z,3.30
2018-05-01T03:28:31.886Z,3.07
2018-05-01T03:30:57.841Z,3.03
2018-05-01T03:33:23.777Z,3.30
2018-05-01T03:35:49.744Z,2.97
2018-05-01T03:38:15.686Z,4.00
2018-05-01T03:40:41.659Z,3.50
2018-05-01T03:43:07.610Z,3.70
2018-05-01T03:45:33.553Z,3.20
2018-05-01T03:47:59.578Z,2.30
2018-05-01T03:50:26.266Z,2.90
2018-05-01T03:52:52.230Z,2.80
2018-05-01T03:55:18.166Z,2.70
2018-05-01T03:57:44.117Z,2.37
2018-05-01T04:00:10.901Z,2.40
2018-05-01T04:02:36.842Z,2.57
2018-05-01T04:05:02.810Z,2.60
2018-05-01T04:07:28.754Z,2.00
2018-05-01T04:09:54.691Z,2.60
2018-05-01T04:12:20.890Z,2.40
2018-05-01T04:14:46.856Z,2.67
2018-05-01T04:17:12.826Z,2.10
2018-05-01T04:19:38.765Z,2.80
2018-05-01T04:22:04.707Z,2.13
2018-05-01T04:24:30.745Z,2.43
2018-05-01T04:26:56.757Z,2.60
2018-05-01T04:29:22.806Z,2.90
2018-05-01T04:31:49.490Z,3.50
2018-05-01T04:34:15.425Z,2.40
2018-05-01T04:36:41.418Z,2.53
2018-05-01T04:39:07.530Z,2.60
2018-05-01T04:41:33.593Z,2.17
2018-05-01T04:44:00.273Z,2.30
2018-05-01T04:46:26.206Z,2.43
2018-05-01T04:48:52.173Z,2.70
2018-05-01T04:51:18.117Z,2.23
2018-05-01T04:53:44.080Z,2.00
2018-05-01T04:56:10.750Z,2.17
2018-05-01T04:58:36.704Z,2.00
2018-05-01T05:01:02.678Z,1.60
2018-05-01T05:03:28.611Z,1.90
2018-05-01T05:05:54.608Z,1.60
2018-05-01T05:08:20.574Z,1.47
2018-05-01T05:10:46.515Z,1.60
2018-05-01T05:13:13.226Z,1.77
2018-05-01T05:15:39.236Z,1.70
2018-05-01T05:18:05.587Z,1.50
2018-05-01T05:20:31.526Z,1.60
2018-05-01T05:22:57.459Z,1.13
2018-05-01T05:25:23.443Z,1.10
2018-05-01T05:27:49.386Z,1.10
2018-05-01T05:30:15.377Z,1.03
2018-05-01T05:32:41.328Z,1.00
2018-05-01T05:35:07.306Z,1.10
2018-05-01T05:37:34.018Z,1.13
2018-05-01T05:40:00.008Z,1.37
2018-05-01T05:42:25.989Z,1.83
2018-05-01T05:44:58.974Z,1.23
2018-05-01T05:47:24.950Z,1.33
2018-05-01T05:49:51.725Z,1.10
2018-05-01T05:52:18.411Z,1.27
2018-05-01T05:54:44.398Z,1.30
2018-05-01T05:57:10.350Z,1.00
2018-05-01T05:59:36.335Z,1.30
2018-05-01T06:02:02.313Z,1.10
2018-05-01T06:04:29.393Z,0.90
2018-05-01T06:06:55.375Z,1.40
2018-05-01T06:09:21.318Z,1.40
2018-05-01T06:11:47.286Z,1.13
2018-05-01T06:14:13.266Z,1.30
2018-05-01T06:16:39.209Z,0.90
2018-05-01T06:19:05.183Z,1.07
2018-05-01T06:21:32.834Z,1.30
2018-05-01T06:23:58.885Z,1.10
2018-05-01T06:26:25.608Z,1.07
2018-05-01T06:28:51.557Z,1.03
2018-05-01T06:31:18.219Z,0.97
2018-05-01T06:33:44.139Z,1.17
2018-05-01T06:36:10.118Z,1.30
2018-05-01T06:38:36.103Z,1.27
2018-05-01T06:41:02.046Z,1.40
2018-05-01T06:43:28.103Z,1.50
2018-05-01T06:45:54.058Z,2.00
2018-05-01T06:48:20.043Z,0.93
2018-05-01T06:50:46.573Z,1.10
2018-05-01T06:53:12.498Z,1.00
2018-05-01T06:55:38.495Z,1.00
2018-05-01T06:58:04.497Z,0.83
2018-05-01T07:00:30.437Z,0.70
2018-05-01T07:02:56.536Z,1.00
2018-05-01T07:05:22.500Z,1.10
2018-05-01T07:07:48.544Z,0.80
2018-05-01T07:10:14.652Z,0.77
2018-05-01T07:12:40.554Z,0.80
2018-05-01T07:15:06.552Z,0.93
2018-05-01T07:17:33.538Z,0.80
2018-05-01T07:19:59.547Z,0.90
2018-05-01T07:22:26.510Z,0.80
2018-05-01T07:24:52.510Z,0.90
2018-05-01T07:27:18.454Z,0.70
2018-05-01T07:29:44.502Z,0.70
2018-05-01T07:32:10.542Z,0.70
2018-05-01T07:34:37.297Z,0.90
2018-05-01T07:37:03.983Z,0.80
2018-05-01T07:39:29.987Z,0.80
2018-05-01T07:41:56.733Z,0.80
2018-05-01T07:44:22.698Z,0.80
2018-05-01T07:46:48.644Z,1.07
2018-05-01T07:49:14.590Z,0.80
2018-05-01T07:51:40.814Z,0.97
2018-05-01T07:54:06.785Z,0.70
2018-05-01T07:56:32.782Z,1.00
2018-05-01T07:58:58.727Z,1.20
2018-05-01T08:01:24.728Z,0.80
2018-05-01T08:03:51.490Z,0.70
2018-05-01T08:06:17.431Z,0.80
2018-05-01T08:08:43.398Z,0.90
2018-05-01T08:11:09.342Z,0.70
2018-05-01T08:13:35.302Z,0.70
2018-05-01T08:16:01.270Z,0.80
2018-05-01T08:18:27.266Z,0.80
2018-05-01T08:20:53.248Z,0.60
2018-05-01T08:23:19.187Z,0.73
2018-05-01T08:25:45.122Z,1.10
2018-05-01T08:28:11.101Z,0.90
2018-05-01T08:30:37.162Z,0.97
2018-05-01T08:33:04.036Z,0.67
2018-05-01T08:35:30.001Z,1.00
2018-05-01T08:37:56.002Z,0.80
2018-05-01T08:40:21.988Z,0.70
2018-05-01T08:42:47.917Z,0.80
2018-05-01T08:45:13.974Z,0.70
2018-05-01T08:47:40.766Z,0.80
2018-05-01T08:50:06.774Z,1.00
2018-05-01T08:52:33.491Z,0.90
2018-05-01T08:54:59.616Z,0.80
2018-05-01T08:57:25.659Z,0.80
2018-05-01T08:59:51.630Z,1.87
2018-05-01T09:02:18.355Z,1.00
2018-05-01T09:04:44.416Z,1.30
2018-05-01T09:07:10.492Z,1.00
2018-05-01T09:09:36.556Z,1.00
2018-05-01T09:12:03.166Z,0.80
2018-05-01T09:14:29.187Z,0.70
2018-05-01T09:16:55.979Z,0.80
2018-05-01T09:19:21.863Z,1.10
2018-05-01T09:21:48.003Z,0.90
2018-05-01T09:24:13.986Z,2.70
2018-05-01T09:26:39.958Z,0.70
2018-05-01T09:29:06.731Z,0.80
2018-05-01T09:31:33.447Z,0.90
2018-05-01T09:33:59.436Z,0.80
2018-05-01T09:36:25.388Z,1.10
2018-05-01T09:38:51.338Z,0.60
2018-05-01T09:41:17.364Z,0.80
2018-05-01T09:43:43.313Z,1.87
2018-05-01T09:46:09.294Z,0.90
2018-05-01T09:48:35.986Z,1.47
2018-05-01T09:51:01.914Z,1.53
2018-05-01T09:53:28.063Z,0.87
2018-05-01T09:55:54.134Z,0.70
2018-05-01T09:58:20.232Z,0.80
2018-05-01T10:00:46.351Z,0.80
2018-05-01T10:03:12.436Z,1.27
2018-05-01T10:05:38.546Z,1.10
2018-05-01T10:08:04.657Z,0.83
2018-05-01T10:10:30.841Z,0.93
2018-05-01T10:12:57.065Z,0.80
2018-05-01T10:15:23.157Z,2.20
2018-05-01T10:20:43.826Z,1.00
2018-05-01T10:23:10.035Z,5.20
2018-05-01T10:25:36.854Z,1.20
2018-05-01T10:28:02.955Z,5.40
2018-05-01T10:30:29.087Z,1.10
2018-05-01T10:32:55.259Z,1.00
2018-05-01T10:35:21.364Z,1.20
2018-05-01T10:37:47.475Z,1.80
2018-05-01T10:40:13.597Z,0.90
2018-05-01T10:42:39.788Z,0.80
2018-05-01T10:45:05.939Z,0.83
2018-05-01T10:47:32.074Z,1.93
2018-05-01T10:49:58.207Z,0.90
2018-05-01T10:52:24.302Z,0.90
2018-05-01T10:54:51.138Z,1.17
2018-05-01T10:57:17.299Z,3.17
2018-05-01T10:59:44.111Z,1.20
2018-05-01T11:02:10.498Z,1.20
2018-05-01T11:04:37.409Z,1.20
2018-05-01T11:07:03.537Z,1.00
2018-05-01T11:09:29.644Z,1.50
2018-05-01T11:11:56.676Z,0.90
2018-05-01T11:14:22.655Z,0.90
2018-05-01T11:16:48.738Z,1.27
2018-05-01T11:19:14.811Z,2.20
2018-05-01T11:21:41.681Z,1.27
2018-05-01T11:24:07.762Z,2.10
2018-05-01T11:26:33.880Z,1.67
2018-05-01T11:28:59.957Z,1.17
2018-05-01T11:31:26.040Z,0.90
2018-05-01T11:33:52.185Z,1.77
2018-05-01T11:36:18.299Z,1.40
2018-05-01T11:38:44.392Z,1.10
2018-05-01T11:41:10.454Z,1.40
2018-05-01T11:43:36.524Z,1.27
2018-05-01T11:46:02.607Z,1.13
2018-05-01T11:48:28.664Z,1.10
2018-05-01T11:50:54.759Z,0.97
2018-05-01T11:53:20.831Z,3.83
2018-05-01T11:55:46.934Z,8.53
2018-05-01T11:58:13.032Z,1.67
2018-05-01T12:00:39.113Z,3.50
2018-05-01T12:03:05.224Z,1.20
2018-05-01T12:05:31.690Z,2.33
2018-05-01T12:07:57.755Z,1.63
2018-05-01T12:10:23.826Z,13.20
2018-05-01T12:12:50.693Z,1.53
2018-05-01T12:15:16.792Z,2.40
2018-05-01T12:17:56.676Z,4.90
2018-05-01T12:20:23.805Z,2.67
2018-05-01T12:22:51.030Z,6.13
2018-05-01T12:25:19.378Z,20.73
2018-05-01T12:27:46.962Z,1.10
2018-05-01T12:30:15.874Z,7.17
2018-05-01T12:32:47.306Z,1.33
2018-05-01T12:35:15.472Z,2.13
2018-05-01T12:37:41.762Z,5.77
2018-05-01T12:40:07.868Z,3.13
2018-05-01T12:42:34.026Z,1.50
2018-05-01T12:45:00.971Z,1.60
2018-05-01T12:47:27.095Z,1.43
2018-05-01T12:49:53.330Z,3.13
2018-05-01T12:52:19.793Z,1.60
2018-05-01T12:54:47.776Z,1.90
2018-05-01T12:57:14.301Z,0.97
2018-05-01T12:59:41.175Z,2.83
2018-05-01T13:02:07.297Z,1.23
2018-05-01T13:04:33.463Z,1.60
2018-05-01T13:06:59.640Z,2.20
2018-05-01T13:09:25.764Z,1.00
2018-05-01T13:11:51.874Z,5.70
2018-05-01T13:14:18.037Z,10.80
2018-05-01T13:16:45.014Z,6.00
2018-05-01T13:19:12.897Z,3.00
2018-05-01T13:21:39.065Z,2.47
2018-05-01T13:24:05.284Z,2.70
2018-05-01T13:26:31.719Z,2.53
2018-05-01T13:28:58.150Z,1.47
2018-05-01T13:31:24.335Z,2.63
2018-05-01T13:33:50.453Z,2.00
2018-05-01T13:36:16.663Z,1.20
2018-05-01T13:38:43.643Z,1.07
2018-05-01T13:41:10.094Z,1.17
2018-05-01T13:43:36.323Z,1.37
2018-05-01T13:46:02.422Z,1.80
2018-05-01T13:48:28.598Z,1.23
2018-05-01T13:50:54.702Z,1.20
2018-05-01T13:53:20.800Z,1.93
2018-05-01T13:55:47.054Z,8.93
2018-05-01T13:58:13.245Z,5.80
2018-05-01T14:00:40.226Z,9.37
2018-05-01T14:03:06.611Z,8.30
2018-05-01T14:05:32.750Z,4.20
2018-05-01T14:07:58.839Z,3.70
2018-05-01T14:10:24.935Z,1.57
2018-05-01T14:12:51.043Z,3.63
2018-05-01T14:15:17.181Z,1.33
2018-05-01T14:17:43.325Z,1.73
2018-05-01T14:20:09.652Z,2.20
2018-05-01T14:22:35.754Z,1.37
2018-05-01T14:25:02.614Z,1.20
2018-05-01T14:27:29.446Z,1.03
2018-05-01T14:29:55.530Z,1.50
2018-05-01T14:32:21.636Z,1.40
2018-05-01T14:34:47.733Z,1.37
2018-05-01T14:37:13.932Z,1.30
2018-05-01T14:39:40.051Z,1.60
2018-05-01T14:42:06.174Z,1.50
2018-05-01T14:44:32.267Z,5.17
2018-05-01T14:46:58.457Z,7.83
2018-05-01T14:49:24.581Z,9.00
2018-05-01T14:51:51.481Z,5.83
2018-05-01T14:54:17.586Z,9.03
2018-05-01T14:56:43.707Z,36.47
2018-05-01T14:59:09.824Z,83.80
2018-05-01T15:01:36.027Z,43.43
2018-05-01T15:04:02.856Z,73.87
2018-05-01T15:06:29.717Z,56.37
2018-05-01T15:08:56.626Z,35.07
2018-05-01T15:11:23.433Z,32.03
2018-05-01T15:13:50.773Z,15.57
2018-05-01T15:16:16.922Z,37.97
2018-05-01T15:18:43.012Z,34.40
2018-05-01T15:21:09.088Z,26.77
2018-05-01T15:23:35.214Z,25.83
2018-05-01T15:26:01.320Z,21.50
2018-05-01T15:28:27.402Z,19.47
2018-05-01T15:30:53.562Z,39.37
2018-05-01T15:33:19.666Z,12.10
2018-05-01T15:35:45.745Z,19.50
2018-05-01T15:38:12.627Z,9.30
2018-05-01T15:40:38.727Z,10.03
2018-05-01T15:43:04.795Z,15.27
2018-05-01T15:45:31.647Z,10.10
2018-05-01T15:47:58.488Z,10.13
2018-05-01T15:50:25.310Z,19.93
2018-05-01T15:52:51.431Z,3.27
2018-05-01T15:55:17.613Z,13.57
2018-05-01T15:57:43.687Z,12.37
2018-05-01T16:00:09.792Z,10.27
2018-05-01T16:02:36.650Z,9.93
2018-05-01T16:05:03.498Z,6.50
2018-05-01T16:10:28.029Z,4.17
2018-05-01T16:12:54.149Z,10.40
2018-05-01T16:15:20.253Z,3.20
2018-05-01T16:17:46.338Z,4.30
2018-05-01T16:20:12.474Z,3.50
2018-05-01T16:22:38.548Z,2.80
2018-05-01T16:25:04.631Z,6.10
2018-05-01T16:27:30.742Z,4.87
2018-05-01T16:29:56.854Z,3.73
2018-05-01T16:32:22.996Z,6.93
2018-05-01T16:34:49.918Z,4.40
2018-05-01T16:37:16.022Z,8.23
2018-05-01T16:39:42.348Z,5.73
2018-05-01T16:42:08.444Z,3.63
2018-05-01T16:44:34.548Z,3.47
2018-05-01T16:47:00.628Z,3.57
2018-05-01T16:49:27.514Z,6.37
2018-05-01T16:51:53.624Z,6.33
2018-05-01T16:54:20.439Z,2.10
2018-05-01T16:56:46.571Z,3.97
2018-05-01T16:59:12.690Z,2.23
2018-05-01T17:01:38.777Z,3.33
2018-05-01T17:04:04.889Z,3.20
2018-05-01T17:06:30.971Z,2.20
2018-05-01T17:08:57.771Z,5.73
2018-05-01T17:11:23.862Z,2.27
2018-05-01T17:13:50.687Z,2.40
2018-05-01T17:16:16.794Z,2.70
2018-05-01T17:18:43.184Z,2.23
2018-05-01T17:21:09.261Z,3.00
2018-05-01T17:23:35.352Z,1.67
2018-05-01T17:26:01.443Z,3.23
2018-05-01T17:28:27.534Z,2.83
2018-05-01T17:30:54.639Z,1.90
2018-05-01T17:33:20.728Z,2.27
2018-05-01T17:35:46.857Z,5.37
2018-05-01T17:38:13.001Z,3.50
2018-05-01T17:40:39.848Z,3.60
2018-05-01T17:43:06.002Z,6.00
2018-05-01T17:45:32.243Z,5.70
2018-05-01T17:47:58.362Z,2.20
2018-05-01T17:50:24.541Z,3.20
2018-05-01T17:52:51.971Z,3.87
2018-05-01T17:55:18.187Z,2.80
2018-05-01T17:57:44.331Z,5.30
2018-05-01T18:00:10.550Z,3.70
2018-05-01T18:02:36.964Z,1.97
2018-05-01T18:05:03.822Z,2.10
2018-05-01T18:07:30.633Z,2.20
2018-05-01T18:09:56.931Z,2.73
2018-05-01T18:12:23.803Z,5.50
2018-05-01T18:14:49.903Z,4.27
2018-05-01T18:17:16.201Z,3.17
2018-05-01T18:19:42.314Z,2.53
2018-05-01T18:22:08.386Z,2.70
2018-05-01T18:24:34.508Z,6.10
2018-05-01T18:27:00.665Z,4.10
2018-05-01T18:29:26.825Z,3.50
2018-05-01T18:31:53.000Z,2.80
2018-05-01T18:34:19.872Z,2.30
2018-05-01T18:36:46.039Z,3.07
2018-05-01T18:39:12.198Z,5.17
2018-05-01T18:41:38.654Z,2.60
2018-05-01T18:44:05.191Z,3.13
2018-05-01T18:46:31.446Z,8.30
2018-05-01T18:48:57.644Z,6.23
2018-05-01T18:51:24.666Z,6.17
2018-05-01T18:53:50.871Z,8.50
2018-05-01T18:56:17.072Z,8.13
2018-05-01T18:58:43.360Z,3.40
2018-05-01T19:01:11.149Z,7.17
2018-05-01T19:03:37.391Z,5.37
2018-05-01T19:06:04.312Z,3.93
2018-05-01T19:08:30.440Z,10.20
2018-05-01T19:10:56.679Z,5.37
2018-05-01T19:13:22.828Z,3.37
2018-05-01T19:15:48.961Z,5.20
2018-05-01T19:18:15.253Z,8.10
2018-05-01T19:20:42.085Z,3.07
2018-05-01T19:23:08.159Z,3.33
2018-05-01T19:25:35.041Z,3.80
2018-05-01T19:28:01.119Z,3.60
2018-05-01T19:30:27.240Z,3.93
2018-05-01T19:32:53.593Z,5.50
2018-05-01T19:35:19.674Z,5.90
2018-05-01T19:37:46.584Z,5.80
2018-05-01T19:40:12.821Z,6.20
2018-05-01T19:42:38.939Z,5.50
2018-05-01T19:45:05.050Z,5.70
2018-05-01T19:47:31.877Z,5.43
2018-05-01T19:49:57.966Z,4.10
2018-05-01T19:52:24.143Z,4.27
2018-05-01T19:54:50.287Z,6.63
2018-05-01T19:57:16.415Z,4.67
2018-05-01T19:59:42.678Z,4.43
2018-05-01T20:02:09.725Z,10.07
2018-05-01T20:04:35.904Z,4.90
2018-05-01T20:07:02.052Z,3.97
2018-05-01T20:09:28.986Z,5.30
2018-05-01T20:11:55.163Z,4.90
2018-05-01T20:14:21.606Z,7.40
2018-05-01T20:16:47.713Z,4.70
2018-05-01T20:19:19.239Z,11.17
2018-05-01T20:21:45.565Z,4.97
2018-05-01T20:24:11.704Z,3.90
2018-05-01T20:26:37.830Z,7.33
2018-05-01T20:29:03.964Z,4.10
2018-05-01T20:31:35.887Z,5.43
2018-05-01T20:34:03.351Z,3.33
2018-05-01T20:36:29.771Z,5.73
2018-05-01T20:38:58.244Z,6.30
2018-05-01T20:41:26.748Z,15.20
2018-05-01T20:43:53.592Z,6.40
2018-05-01T20:46:22.871Z,6.10
2018-05-01T20:48:49.245Z,6.40
2018-05-01T20:51:15.413Z,6.77
2018-05-01T20:53:41.767Z,5.43
2018-05-01T20:56:08.235Z,5.50
2018-05-01T20:58:34.733Z,12.00
2018-05-01T21:01:01.610Z,4.00
2018-05-01T21:03:28.321Z,5.47
2018-05-01T21:05:55.133Z,6.03
2018-05-01T21:08:21.377Z,3.67
2018-05-01T21:10:47.968Z,8.63
2018-05-01T21:13:16.124Z,6.60
2018-05-01T21:15:44.319Z,6.10
2018-05-01T21:18:10.466Z,3.90
2018-05-01T21:20:38.127Z,4.00
2018-05-01T21:23:04.236Z,4.20
2018-05-01T21:25:30.715Z,4.50
2018-05-01T21:27:56.866Z,5.27
2018-05-01T21:30:22.965Z,5.73
2018-05-01T21:32:49.705Z,6.30
2018-05-01T21:35:15.979Z,5.93
2018-05-01T21:37:42.372Z,8.00
2018-05-01T21:40:08.475Z,6.40
2018-05-01T21:42:34.648Z,6.73
2018-05-01T21:45:01.760Z,7.77
2018-05-01T21:47:27.827Z,7.13
2018-05-01T21:49:54.099Z,7.00
2018-05-01T21:52:20.343Z,10.17
2018-05-01T21:54:47.438Z,6.10
2018-05-01T21:57:13.982Z,4.10
2018-05-01T21:59:40.167Z,7.60
2018-05-01T22:02:06.293Z,6.60
2018-05-01T22:04:32.396Z,6.50
2018-05-01T22:06:58.524Z,6.23
2018-05-01T22:09:24.607Z,6.80
2018-05-01T22:11:50.754Z,5.67
2018-05-01T22:14:18.137Z,5.30
2018-05-01T22:16:44.367Z,4.80
2018-05-01T22:19:10.745Z,6.07
2018-05-01T22:21:36.832Z,5.63
2018-05-01T22:24:02.926Z,5.60
2018-05-01T22:26:29.091Z,5.03
2018-05-01T22:28:55.186Z,6.50
2018-05-01T22:31:22.001Z,7.57
2018-05-01T22:33:48.090Z,11.20
2018-05-01T22:36:14.185Z,5.07
2018-05-01T22:38:40.252Z,5.40
2018-05-01T22:41:07.099Z,6.20
2018-05-01T22:43:33.418Z,5.17
2018-05-01T22:45:59.471Z,4.07
2018-05-01T22:48:25.682Z,6.80
2018-05-01T22:50:51.746Z,6.60
2018-05-01T22:53:17.815Z,5.53
2018-05-01T22:55:43.912Z,5.53
2018-05-01T22:58:09.984Z,5.90
2018-05-01T23:00:36.056Z,6.70
2018-05-01T23:03:02.277Z,4.60
2018-05-01T23:05:28.417Z,4.90
2018-05-01T23:07:54.478Z,4.90
2018-05-01T23:10:21.315Z,5.60
2018-05-01T23:12:47.394Z,5.10
2018-05-01T23:15:14.553Z,5.80
2018-05-01T23:17:40.823Z,5.90
2018-05-01T23:20:07.696Z,5.90
2018-05-01T23:22:33.827Z,5.10
2018-05-01T23:24:59.916Z,5.27
2018-05-01T23:27:25.998Z,4.33
2018-05-01T23:29:52.826Z,5.50
2018-05-01T23:32:19.051Z,5.53
2018-05-01T23:34:45.171Z,6.17
2018-05-01T23:37:11.234Z,4.33
2018-05-01T23:39:37.335Z,5.87
2018-05-01T23:42:04.027Z,5.00
2018-05-01T23:44:30.126Z,5.50
2018-05-01T23:46:56.252Z,5.00
2018-05-01T23:49:22.314Z,5.20
2018-05-01T23:51:48.430Z,5.57
2018-05-01T23:54:15.581Z,5.40
2018-05-01T23:56:41.851Z,5.57
2018-05-01T23:59:07.929Z,5.70
